Time;durP1;ratioP1;P1;durP2;ratioP2;P2;SDS_P1;SDS_P2;PMS_P1;PMS_P2;Temp;Humidity;BMP_temperature;BMP_pressure;BME280_temperature;BME280_humidity;BME280_pressure;Samples;Min_cycle;Max_cycle;Signal;HPM_P1;HPM_P2
2022/10/14 00:00:04;;;;;;;;;0.00;0.00;;;;;;;;5069977;28;8904;-89
2022/10/14 00:02:29;;;;;;;;;0.00;0.00;;;;;;;;5033392;28;8811;-88
2022/10/14 00:04:54;;;;;;;;;0.00;0.00;;;;;;;;5031569;28;8792;-88
2022/10/14 00:07:19;;;;;;;;;0.00;0.00;;;;;;;;5049599;28;8840;-88
2022/10/14 00:09:45;;;;;;;;;0.00;0.00;;;;;;;;5051055;28;8996;-88
2022/10/14 00:12:10;;;;;;;;;0.00;0.00;;;;;;;;5031542;28;8837;-88
2022/10/14 00:14:35;;;;;;;;;0.00;0.00;;;;;;;;5050428;28;8798;-88
2022/10/14 00:17:01;;;;;;;;;0.00;0.00;;;;;;;;5050046;28;8807;-88
2022/10/14 00:19:26;;;;;;;;;0.00;0.00;;;;;;;;5031503;28;8819;-88
2022/10/14 00:21:51;;;;;;;;;0.00;0.00;;;;;;;;5049812;28;8834;-88
2022/10/14 00:24:17;;;;;;;;;0.00;0.00;;;;;;;;5052172;28;9096;-88
2022/10/14 00:26:43;;;;;;;;;0.00;0.00;;;;;;;;5052448;28;8931;-88
2022/10/14 00:29:11;;;;;;;;;0.00;0.00;;;;;;;;5061450;28;8991;-88
2022/10/14 00:31:36;;;;;;;;;0.00;0.00;;;;;;;;5055442;28;8845;-88
2022/10/14 00:34:02;;;;;;;;;0.00;0.00;;;;;;;;5055520;28;11444;-88
2022/10/14 00:36:27;;;;;;;;;0.00;0.00;;;;;;;;5072760;28;8793;-88
2022/10/14 00:38:53;;;;;;;;;0.00;0.00;;;;;;;;5073617;28;8797;-89
2022/10/14 00:41:23;;;;;;;;;0.00;0.00;;;;;;;;5072600;28;8827;-88
2022/10/14 00:44:08;;;;;;;;;0.00;0.00;;;;;;;;5062112;28;11594;-89
2022/10/14 00:46:35;;;;;;;;;0.00;0.00;;;;;;;;4955156;28;11637;-89
2022/10/14 00:49:04;;;;;;;;;0.00;0.00;;;;;;;;4971843;28;11515;-89
2022/10/14 00:51:29;;;;;;;;;0.00;0.00;;;;;;;;4953722;28;11545;-88
2022/10/14 00:53:54;;;;;;;;;0.00;0.00;;;;;;;;4971639;28;11570;-89
2022/10/14 00:56:22;;;;;;;;;0.00;0.00;;;;;;;;4970973;28;8834;-89
2022/10/14 00:58:47;;;;;;;;;0.00;0.00;;;;;;;;4971919;28;8806;-89
2022/10/14 01:01:12;;;;;;;;;0.00;0.00;;;;;;;;4971633;28;11578;-89
2022/10/14 01:03:38;;;;;;;;;0.00;0.00;;;;;;;;4971550;28;8846;-89
2022/10/14 01:06:17;;;;;;;;;0.00;0.00;;;;;;;;4954376;28;8850;-88
2022/10/14 01:08:45;;;;;;;;;0.00;0.00;;;;;;;;4952587;28;8908;-89
2022/10/14 01:11:25;;;;;;;;;0.00;0.00;;;;;;;;4935303;28;11535;-89
2022/10/14 01:14:00;;;;;;;;;0.00;0.00;;;;;;;;4956046;28;11559;-89
2022/10/14 01:16:42;;;;;;;;;0.00;0.00;;;;;;;;4952041;28;11547;-89
2022/10/14 01:19:10;;;;;;;;;0.00;0.00;;;;;;;;4936025;28;11559;-88
2022/10/14 01:21:37;;;;;;;;;0.00;0.00;;;;;;;;4951757;28;11535;-89
2022/10/14 01:24:04;;;;;;;;;0.00;0.00;;;;;;;;5018966;28;12257;-88
2022/10/14 01:26:48;;;;;;;;;0.00;0.00;;;;;;;;5033551;28;11541;-88
2022/10/14 01:29:31;;;;;;;;;0.00;0.00;;;;;;;;5052762;28;8792;-88
2022/10/14 01:32:01;;;;;;;;;0.00;0.00;;;;;;;;5052517;28;11418;-88
2022/10/14 01:34:33;;;;;;;;;0.00;0.00;;;;;;;;5052608;28;11422;-89
2022/10/14 01:37:01;;;;;;;;;0.00;0.00;;;;;;;;5034047;28;11584;-88
2022/10/14 01:39:29;;;;;;;;;0.00;0.00;;;;;;;;5035944;28;11540;-88
2022/10/14 01:41:59;;;;;;;;;0.00;0.00;;;;;;;;5071535;28;11408;-89
2022/10/14 01:44:25;;;;;;;;;0.00;0.00;;;;;;;;5072630;28;11425;-88
2022/10/14 01:46:53;;;;;;;;;0.00;0.00;;;;;;;;5071709;28;11443;-89
2022/10/14 01:49:24;;;;;;;;;0.00;0.00;;;;;;;;5071608;28;11385;-88
2022/10/14 01:51:54;;;;;;;;;0.00;0.00;;;;;;;;5071911;28;11381;-88
2022/10/14 01:54:24;;;;;;;;;0.00;0.00;;;;;;;;5062274;28;11430;-88
2022/10/14 01:56:52;;;;;;;;;0.00;0.00;;;;;;;;5051116;28;11422;-89
2022/10/14 01:59:18;;;;;;;;;0.00;0.00;;;;;;;;5052200;28;11403;-89
2022/10/14 02:01:43;;;;;;;;;0.00;0.00;;;;;;;;5055699;28;11413;-89
2022/10/14 02:04:16;;;;;;;;;0.00;0.00;;;;;;;;5072189;28;8793;-88
2022/10/14 02:06:42;;;;;;;;;0.00;0.00;;;;;;;;5053097;28;9441;-88
2022/10/14 02:09:42;;;;;;;;;0.00;0.00;;;;;;;;5072194;28;8789;-88
2022/10/14 02:12:17;;;;;;;;;0.00;0.00;;;;;;;;4969881;28;11635;-88
2022/10/14 02:14:45;;;;;;;;;0.00;0.00;;;;;;;;4953852;28;11644;-89
2022/10/14 02:17:16;;;;;;;;;0.00;0.00;;;;;;;;4970072;28;8834;-89
2022/10/14 02:19:51;;;;;;;;;0.00;0.00;;;;;;;;4969950;28;11538;-89
2022/10/14 02:22:25;;;;;;;;;0.00;0.00;;;;;;;;4970175;28;11507;-89
2022/10/14 02:24:52;;;;;;;;;0.00;0.00;;;;;;;;4969883;28;11666;-88
2022/10/14 02:27:20;;;;;;;;;0.00;0.00;;;;;;;;4969542;28;11535;-89
2022/10/14 02:29:46;;;;;;;;;0.00;0.00;;;;;;;;4939339;28;11661;-89
2022/10/14 02:32:17;;;;;;;;;0.00;0.00;;;;;;;;4953802;28;12320;-88
2022/10/14 02:34:44;;;;;;;;;0.00;0.00;;;;;;;;4969948;28;11596;-88
2022/10/14 02:37:11;;;;;;;;;0.00;0.00;;;;;;;;4953840;28;12648;-89
2022/10/14 02:39:42;;;;;;;;;0.00;0.00;;;;;;;;4970385;28;11531;-89
2022/10/14 02:42:07;;;;;;;;;0.00;0.00;;;;;;;;4969446;28;11548;-88
2022/10/14 02:44:32;;;;;;;;;0.00;0.00;;;;;;;;4967791;28;11588;-89
2022/10/14 02:46:57;;;;;;;;;0.00;0.00;;;;;;;;5038763;28;8819;-88
2022/10/14 02:49:23;;;;;;;;;0.00;0.00;;;;;;;;5033068;28;8843;-87
2022/10/14 02:51:48;;;;;;;;;0.00;0.00;;;;;;;;5051138;28;8799;-88
2022/10/14 02:54:13;;;;;;;;;0.00;0.00;;;;;;;;5051520;28;8787;-88
2022/10/14 02:56:38;;;;;;;;;0.00;0.00;;;;;;;;5050418;28;8859;-88
2022/10/14 02:59:03;;;;;;;;;0.00;0.00;;;;;;;;5051221;28;8799;-88
2022/10/14 03:01:29;;;;;;;;;0.00;0.00;;;;;;;;5065798;28;8813;-88
2022/10/14 03:03:54;;;;;;;;;0.00;0.00;;;;;;;;5071724;28;9546;-88
2022/10/14 03:06:19;;;;;;;;;0.00;0.00;;;;;;;;5069908;28;8845;-88
2022/10/14 03:08:44;;;;;;;;;0.00;0.00;;;;;;;;5053575;28;8820;-89
2022/10/14 03:11:09;;;;;;;;;0.00;0.00;;;;;;;;5069993;28;8796;-88
2022/10/14 03:13:35;;;;;;;;;0.00;0.00;;;;;;;;5069076;28;8820;-89
2022/10/14 03:16:00;;;;;;;;;0.00;0.00;;;;;;;;5032767;28;8835;-88
2022/10/14 03:18:25;;;;;;;;;0.00;0.00;;;;;;;;5051304;28;8834;-88
2022/10/14 03:20:50;;;;;;;;;0.00;0.00;;;;;;;;5050186;28;8925;-88
2022/10/14 03:23:15;;;;;;;;;0.00;0.00;;;;;;;;5050734;28;8881;-88
2022/10/14 03:25:42;;;;;;;;;0.00;0.00;;;;;;;;5053192;28;8824;-88
2022/10/14 03:28:07;;;;;;;;;0.00;0.00;;;;;;;;5070130;28;8919;-89
2022/10/14 03:30:33;;;;;;;;;0.00;0.00;;;;;;;;5070236;28;11441;-88
2022/10/14 03:32:58;;;;;;;;;0.00;0.00;;;;;;;;5070720;28;8805;-88
2022/10/14 03:35:23;;;;;;;;;0.00;0.00;;;;;;;;5070422;28;8778;-89
2022/10/14 03:37:48;;;;;;;;;0.00;0.00;;;;;;;;5061272;28;8804;-88
2022/10/14 03:40:14;;;;;;;;;0.00;0.00;;;;;;;;5031956;28;8799;-87
2022/10/14 03:42:39;;;;;;;;;0.00;0.00;;;;;;;;5050026;28;8792;-88
2022/10/14 03:45:05;;;;;;;;;0.00;0.00;;;;;;;;5050550;28;8898;-88
2022/10/14 03:47:30;;;;;;;;;0.00;0.00;;;;;;;;5050504;28;8827;-89
2022/10/14 03:49:55;;;;;;;;;0.00;0.00;;;;;;;;5060587;28;8922;-88
2022/10/14 03:52:20;;;;;;;;;0.00;0.00;;;;;;;;5070339;28;8789;-89
2022/10/14 03:54:46;;;;;;;;;0.00;0.00;;;;;;;;5056683;28;8819;-88
2022/10/14 03:57:11;;;;;;;;;0.00;0.00;;;;;;;;5050095;28;8815;-88
2022/10/14 03:59:36;;;;;;;;;0.00;0.00;;;;;;;;5032830;28;8835;-88
2022/10/14 04:02:01;;;;;;;;;0.00;0.00;;;;;;;;5050203;28;8787;-88
2022/10/14 04:04:26;;;;;;;;;0.00;0.00;;;;;;;;5051319;28;8902;-88
2022/10/14 04:06:51;;;;;;;;;0.00;0.00;;;;;;;;5049233;28;8823;-88
2022/10/14 04:09:17;;;;;;;;;0.00;0.00;;;;;;;;5050396;28;8819;-89
2022/10/14 04:11:42;;;;;;;;;0.00;0.00;;;;;;;;5048986;28;8795;-88
2022/10/14 04:14:07;;;;;;;;;0.00;0.00;;;;;;;;5050139;28;8807;-89
2022/10/14 04:16:32;;;;;;;;;0.00;0.00;;;;;;;;5050160;28;8881;-89
2022/10/14 04:18:58;;;;;;;;;0.00;0.00;;;;;;;;5039086;28;8817;-89
2022/10/14 04:21:23;;;;;;;;;0.00;0.00;;;;;;;;5050587;28;8877;-89
2022/10/14 04:23:49;;;;;;;;;0.00;0.00;;;;;;;;5068969;28;8817;-88
2022/10/14 04:26:14;;;;;;;;;0.00;0.00;;;;;;;;5068753;28;8813;-88
2022/10/14 04:28:39;;;;;;;;;0.00;0.00;;;;;;;;5070353;28;8797;-88
2022/10/14 04:31:05;;;;;;;;;0.00;0.00;;;;;;;;5051325;28;9952;-88
2022/10/14 04:33:30;;;;;;;;;0.00;0.00;;;;;;;;5070211;28;8821;-88
2022/10/14 04:35:59;;;;;;;;;0.00;0.00;;;;;;;;5064782;28;8858;-89
2022/10/14 04:38:25;;;;;;;;;0.00;0.00;;;;;;;;5043984;28;8797;-88
2022/10/14 04:40:50;;;;;;;;;0.00;0.00;;;;;;;;5050387;28;11485;-88
2022/10/14 04:43:15;;;;;;;;;0.00;0.00;;;;;;;;5049787;28;8811;-88
2022/10/14 04:45:41;;;;;;;;;0.00;0.00;;;;;;;;5031031;28;8835;-88
2022/10/14 04:48:06;;;;;;;;;0.00;0.00;;;;;;;;5049715;28;8851;-88
2022/10/14 04:50:31;;;;;;;;;0.00;0.00;;;;;;;;5051628;28;8897;-89
2022/10/14 04:52:57;;;;;;;;;0.00;0.00;;;;;;;;5069301;28;8933;-89
2022/10/14 04:55:22;;;;;;;;;0.00;0.00;;;;;;;;5068761;28;8789;-88
2022/10/14 04:57:47;;;;;;;;;0.00;0.00;;;;;;;;5069364;28;8839;-88
2022/10/14 05:00:13;;;;;;;;;0.00;0.00;;;;;;;;5069763;28;8805;-88
2022/10/14 05:02:38;;;;;;;;;0.00;0.00;;;;;;;;5069891;28;8943;-88
2022/10/14 05:05:04;;;;;;;;;0.00;0.00;;;;;;;;5050640;28;11534;-88
2022/10/14 05:07:30;;;;;;;;;0.00;0.00;;;;;;;;5069131;28;9697;-89
2022/10/14 05:09:55;;;;;;;;;0.00;0.00;;;;;;;;5069966;28;8809;-88
2022/10/14 05:12:20;;;;;;;;;0.00;0.00;;;;;;;;5072477;28;8847;-88
2022/10/14 05:14:46;;;;;;;;;0.00;0.00;;;;;;;;5063845;28;8844;-89
2022/10/14 05:17:11;;;;;;;;;0.00;0.00;;;;;;;;5072818;28;9559;-88
2022/10/14 05:19:36;;;;;;;;;0.00;0.00;;;;;;;;5072824;28;8809;-89
2022/10/14 05:22:01;;;;;;;;;0.00;0.00;;;;;;;;5071678;28;8824;-87
2022/10/14 05:24:26;;;;;;;;;0.00;0.00;;;;;;;;5072937;28;8810;-88
2022/10/14 05:26:52;;;;;;;;;0.00;0.00;;;;;;;;5053441;28;8894;-88
2022/10/14 05:29:17;;;;;;;;;0.00;0.00;;;;;;;;5073012;28;8813;-89
2022/10/14 05:31:42;;;;;;;;;0.00;0.00;;;;;;;;5063412;28;8811;-88
2022/10/14 05:34:07;;;;;;;;;0.00;0.00;;;;;;;;5064047;28;8819;-88
2022/10/14 05:36:32;;;;;;;;;0.00;0.00;;;;;;;;5071642;28;9550;-89
2022/10/14 05:38:58;;;;;;;;;0.00;0.00;;;;;;;;5049621;28;8809;-88
2022/10/14 05:41:23;;;;;;;;;0.00;0.00;;;;;;;;5071311;28;8812;-88
2022/10/14 05:43:48;;;;;;;;;0.00;0.00;;;;;;;;5054795;28;9549;-88
2022/10/14 05:46:14;;;;;;;;;0.00;0.00;;;;;;;;5067627;28;8840;-89
2022/10/14 05:48:39;;;;;;;;;0.00;0.00;;;;;;;;5072930;28;8859;-88
2022/10/14 05:51:04;;;;;;;;;0.00;0.00;;;;;;;;5068927;28;8814;-88
2022/10/14 05:53:31;;;;;;;;;0.00;0.00;;;;;;;;5050842;28;8812;-88
2022/10/14 05:56:00;;;;;;;;;0.00;0.00;;;;;;;;5061734;28;8793;-88
2022/10/14 05:58:25;;;;;;;;;3.00;3.00;;;;;;;;5071923;28;11546;-89
2022/10/14 06:00:50;;;;;;;;;0.00;0.00;;;;;;;;5064476;28;11491;-88
2022/10/14 06:03:15;;;;;;;;;0.00;0.00;;;;;;;;5053388;28;8820;-88
2022/10/14 06:05:41;;;;;;;;;0.00;0.00;;;;;;;;5051517;28;8919;-88
2022/10/14 06:08:06;;;;;;;;;0.00;0.00;;;;;;;;5041142;28;9136;-88
2022/10/14 06:10:31;;;;;;;;;0.00;0.00;;;;;;;;5069693;28;8813;-89
2022/10/14 06:12:56;;;;;;;;;7.00;7.00;;;;;;;;5060167;28;8847;-88
2022/10/14 06:15:22;;;;;;;;;0.00;0.00;;;;;;;;5053868;28;9007;-89
2022/10/14 06:17:47;;;;;;;;;0.00;0.00;;;;;;;;5070779;28;8867;-88
2022/10/14 06:20:12;;;;;;;;;0.00;0.00;;;;;;;;5070856;28;8821;-88
2022/10/14 06:22:37;;;;;;;;;0.00;0.00;;;;;;;;5051449;28;8890;-87
2022/10/14 06:25:03;;;;;;;;;0.00;0.00;;;;;;;;5071545;28;8890;-85
2022/10/14 06:27:28;;;;;;;;;0.00;0.00;;;;;;;;5070491;28;8858;-88
2022/10/14 06:29:53;;;;;;;;;0.00;0.00;;;;;;;;5070243;28;8829;-88
2022/10/14 06:32:18;;;;;;;;;0.00;0.00;;;;;;;;5071306;28;8892;-88
2022/10/14 06:34:43;;;;;;;;;0.00;0.00;;;;;;;;5070991;28;8927;-89
2022/10/14 06:37:08;;;;;;;;;0.00;0.00;;;;;;;;5070259;28;8841;-87
2022/10/14 06:39:34;;;;;;;;;0.00;0.00;;;;;;;;5053338;28;8935;-86
2022/10/14 06:42:00;;;;;;;;;0.00;0.00;;;;;;;;5067555;28;8906;-86
2022/10/14 06:44:26;;;;;;;;;0.00;0.00;;;;;;;;5071260;28;8983;-86
2022/10/14 06:46:51;;;;;;;;;0.00;0.00;;;;;;;;5070448;28;11441;-89
2022/10/14 06:49:16;;;;;;;;;0.00;0.00;;;;;;;;5075019;28;8816;-86
2022/10/14 06:51:41;;;;;;;;;0.00;0.00;;;;;;;;5072001;28;8809;-86
2022/10/14 06:54:07;;;;;;;;;0.00;0.00;;;;;;;;5052341;28;8955;-86
2022/10/14 06:56:33;;;;;;;;;0.00;0.00;;;;;;;;5069764;28;8805;-86
2022/10/14 06:58:58;;;;;;;;;0.00;0.00;;;;;;;;5062655;28;8809;-86
2022/10/14 07:01:23;;;;;;;;;0.00;0.00;;;;;;;;5064657;28;11393;-86
2022/10/14 07:03:49;;;;;;;;;0.00;0.00;;;;;;;;5064345;28;9542;-86
2022/10/14 07:06:14;;;;;;;;;0.00;0.00;;;;;;;;5065760;28;8849;-87
2022/10/14 07:08:39;;;;;;;;;0.00;0.00;;;;;;;;5064080;28;9282;-88
2022/10/14 07:11:04;;;;;;;;;0.00;0.00;;;;;;;;5065816;28;8821;-87
2022/10/14 07:13:30;;;;;;;;;0.00;0.00;;;;;;;;5056378;28;8827;-86
2022/10/14 07:15:55;;;;;;;;;0.00;0.00;;;;;;;;5068229;28;9566;-87
2022/10/14 07:18:20;;;;;;;;;0.00;0.00;;;;;;;;5044484;28;8915;-87
2022/10/14 07:20:45;;;;;;;;;0.00;0.00;;;;;;;;5052419;28;8807;-87
2022/10/14 07:23:11;;;;;;;;;0.00;0.00;;;;;;;;5054177;28;8809;-86
2022/10/14 07:25:36;;;;;;;;;0.00;0.00;;;;;;;;5053658;28;8827;-87
2022/10/14 07:28:01;;;;;;;;;0.00;0.00;;;;;;;;5059953;28;8815;-87
2022/10/14 07:30:26;;;;;;;;;0.00;0.00;;;;;;;;5065986;28;8825;-87
2022/10/14 07:32:52;;;;;;;;;0.00;0.00;;;;;;;;5043542;28;8828;-86
2022/10/14 07:35:20;;;;;;;;;0.00;0.00;;;;;;;;5059305;28;8913;-87
2022/10/14 07:37:47;;;;;;;;;0.00;0.00;;;;;;;;5051387;28;8791;-87
2022/10/14 07:40:13;;;;;;;;;0.00;0.00;;;;;;;;5062816;28;11420;-87
2022/10/14 07:42:38;;;;;;;;;0.00;0.00;;;;;;;;5068241;28;11480;-87
2022/10/14 07:45:04;;;;;;;;;0.00;0.00;;;;;;;;5053644;28;8843;-88
2022/10/14 07:47:30;;;;;;;;;0.00;0.00;;;;;;;;5037689;28;9957;-88
2022/10/14 07:49:55;;;;;;;;;0.00;0.00;;;;;;;;5054103;28;11455;-88
2022/10/14 07:52:21;;;;;;;;;0.00;0.00;;;;;;;;5051944;28;8815;-88
2022/10/14 07:54:46;;;;;;;;;0.00;0.00;;;;;;;;5055094;28;8799;-87
2022/10/14 07:57:11;;;;;;;;;0.00;0.00;;;;;;;;5039683;28;8818;-87
2022/10/14 07:59:37;;;;;;;;;0.00;0.00;;;;;;;;5060667;28;8845;-87
2022/10/14 08:02:02;;;;;;;;;0.00;0.00;;;;;;;;5054620;28;8844;-87
2022/10/14 08:04:27;;;;;;;;;0.00;0.00;;;;;;;;5058422;28;8809;-87
2022/10/14 08:06:53;;;;;;;;;0.00;0.00;;;;;;;;5061625;28;8880;-87
2022/10/14 08:09:18;;;;;;;;;0.00;0.00;;;;;;;;5069511;28;8813;-87
2022/10/14 08:11:44;;;;;;;;;0.00;0.00;;;;;;;;5065692;28;8856;-87
2022/10/14 08:14:09;;;;;;;;;0.00;0.00;;;;;;;;5067629;28;8820;-86
2022/10/14 08:16:35;;;;;;;;;0.00;0.00;;;;;;;;5066599;28;8828;-87
2022/10/14 08:19:02;;;;;;;;;0.00;0.00;;;;;;;;5046992;28;8904;-87
2022/10/14 08:21:27;;;;;;;;;0.00;0.00;;;;;;;;5050667;28;8763;-87
2022/10/14 08:23:53;;;;;;;;;0.00;0.00;;;;;;;;5050910;28;11446;-87
2022/10/14 08:26:38;;;;;;;;;0.00;0.00;;;;;;;;5031757;28;18573;-87
2022/10/14 08:29:05;;;;;;;;;0.00;0.00;;;;;;;;5062925;28;15517;-87
2022/10/14 08:31:31;;;;;;;;;0.00;0.00;;;;;;;;5058508;28;11416;-88
2022/10/14 08:33:56;;;;;;;;;0.00;0.00;;;;;;;;5050208;28;12214;-88
2022/10/14 08:36:21;;;;;;;;;0.00;0.00;;;;;;;;5051386;28;8835;-87
2022/10/14 08:38:47;;;;;;;;;0.00;0.00;;;;;;;;5059457;28;8805;-87
2022/10/14 08:41:13;;;;;;;;;0.00;0.00;;;;;;;;5049928;28;8828;-87
2022/10/14 08:43:42;;;;;;;;;0.00;0.00;;;;;;;;5047031;28;8817;-88
2022/10/14 08:46:17;;;;;;;;;0.00;0.00;;;;;;;;5040834;28;8834;-87
2022/10/14 08:48:46;;;;;;;;;0.00;0.00;;;;;;;;5063926;28;11418;-89
2022/10/14 08:51:15;;;;;;;;;0.00;0.00;;;;;;;;5026268;28;45679;-87
2022/10/14 08:53:43;;;;;;;;;0.00;0.00;;;;;;;;5015045;28;45529;-88
2022/10/14 08:56:10;;;;;;;;;0.00;0.00;;;;;;;;5012680;28;47354;-88
2022/10/14 08:58:38;;;;;;;;;0.00;0.00;;;;;;;;5022127;28;45432;-88
2022/10/14 09:01:14;;;;;;;;;0.00;0.00;;;;;;;;5030239;28;45556;-87
2022/10/14 09:03:40;;;;;;;;;0.00;0.00;;;;;;;;5023092;28;45659;-88
2022/10/14 09:06:10;;;;;;;;;0.00;0.00;;;;;;;;5032802;28;46372;-88
2022/10/14 09:08:37;;;;;;;;;0.00;0.00;;;;;;;;5014318;28;45549;-88
2022/10/14 09:11:03;;;;;;;;;0.00;0.00;;;;;;;;5009338;28;45392;-88
2022/10/14 09:13:31;;;;;;;;;0.00;0.00;;;;;;;;5008845;28;45517;-88
2022/10/14 09:16:13;;;;;;;;;0.00;0.00;;;;;;;;5027503;28;46479;-88
2022/10/14 09:18:41;;;;;;;;;0.00;0.00;;;;;;;;5032443;28;45577;-88
2022/10/14 09:21:29;;;;;;;;;0.00;0.00;;;;;;;;5025087;28;45629;-87
2022/10/14 09:24:00;;;;;;;;;0.00;0.00;;;;;;;;5003783;28;45550;-87
2022/10/14 09:26:28;;;;;;;;;0.00;0.00;;;;;;;;5026362;28;46624;-88
2022/10/14 09:28:54;;;;;;;;;0.00;0.00;;;;;;;;5029534;28;45619;-88
2022/10/14 09:31:19;;;;;;;;;0.00;0.00;;;;;;;;5023533;28;45252;-88
2022/10/14 09:33:45;;;;;;;;;0.00;0.00;;;;;;;;5005402;28;45541;-88
2022/10/14 09:36:17;;;;;;;;;0.00;0.00;;;;;;;;5023170;28;45347;-86
2022/10/14 09:38:45;;;;;;;;;0.00;0.00;;;;;;;;5006515;28;45529;-87
2022/10/14 09:41:13;;;;;;;;;0.00;0.00;;;;;;;;5016875;28;45584;-87
2022/10/14 09:43:58;;;;;;;;;0.00;0.00;;;;;;;;5020526;28;45400;-87
2022/10/14 09:46:23;;;;;;;;;0.00;0.00;;;;;;;;5029230;28;47506;-87
2022/10/14 09:48:49;;;;;;;;;0.00;0.00;;;;;;;;5013171;28;46653;-87
2022/10/14 09:51:26;;;;;;;;;0.00;0.00;;;;;;;;5012092;28;45521;-88
2022/10/14 09:53:53;;;;;;;;;0.00;0.00;;;;;;;;5008149;28;45565;-88
2022/10/14 09:56:35;;;;;;;;;0.00;0.00;;;;;;;;5024077;28;45589;-88
2022/10/14 09:59:01;;;;;;;;;0.00;0.00;;;;;;;;5010238;28;45846;-87
2022/10/14 10:01:28;;;;;;;;;0.00;0.00;;;;;;;;5011544;28;45742;-87
2022/10/14 10:03:54;;;;;;;;;0.00;0.00;;;;;;;;5010762;28;45525;-88
2022/10/14 10:06:24;;;;;;;;;0.00;0.00;;;;;;;;5021527;28;45482;-86
2022/10/14 10:08:52;;;;;;;;;0.00;0.00;;;;;;;;5015799;28;45494;-85
2022/10/14 10:11:37;;;;;;;;;0.00;0.00;;;;;;;;5029707;28;45613;-86
2022/10/14 10:14:20;;;;;;;;;0.00;0.00;;;;;;;;5027709;28;45670;-86
2022/10/14 10:16:46;;;;;;;;;0.00;0.00;;;;;;;;5025861;28;46603;-84
2022/10/14 10:19:31;;;;;;;;;0.00;0.00;;;;;;;;5022426;28;45406;-83
2022/10/14 10:22:20;;;;;;;;;0.00;0.00;;;;;;;;5029205;28;45445;-84
2022/10/14 10:24:46;;;;;;;;;0.00;0.00;;;;;;;;5018641;28;45710;-84
2022/10/14 10:27:18;;;;;;;;;0.00;0.00;;;;;;;;5008245;28;46973;-85
2022/10/14 10:29:43;;;;;;;;;0.00;0.00;;;;;;;;5027997;28;45509;-85
2022/10/14 10:32:09;;;;;;;;;0.00;0.00;;;;;;;;5025759;28;45471;-87
2022/10/14 10:34:53;;;;;;;;;0.00;0.00;;;;;;;;5023022;28;45908;-87
2022/10/14 10:37:23;;;;;;;;;0.00;0.00;;;;;;;;5028079;28;46271;-84
2022/10/14 10:39:52;;;;;;;;;0.00;0.00;;;;;;;;5030830;28;45642;-86
2022/10/14 10:42:24;;;;;;;;;0.00;0.00;;;;;;;;5031958;28;45637;-85
2022/10/14 10:45:08;;;;;;;;;0.00;0.00;;;;;;;;5029862;28;45749;-87
2022/10/14 10:47:47;;;;;;;;;0.00;0.00;;;;;;;;5024057;28;46386;-86
2022/10/14 10:50:15;;;;;;;;;0.00;0.00;;;;;;;;5005699;28;45675;-86
2022/10/14 10:52:48;;;;;;;;;0.00;0.00;;;;;;;;5021119;28;45400;-86
2022/10/14 10:55:27;;;;;;;;;0.00;0.00;;;;;;;;5027694;28;45810;-87
2022/10/14 10:57:57;;;;;;;;;0.00;0.00;;;;;;;;5030618;28;45778;-86
2022/10/14 11:00:23;;;;;;;;;0.00;0.00;;;;;;;;5018579;28;45564;-87
2022/10/14 11:03:07;;;;;;;;;0.00;0.00;;;;;;;;5032246;28;45516;-86
2022/10/14 11:05:50;;;;;;;;;0.00;0.00;;;;;;;;5017898;28;45685;-86
2022/10/14 11:14:22;;;;;;;;;0.00;0.00;;;;;;;;5025280;28;45501;-85
2022/10/14 11:17:06;;;;;;;;;0.00;0.00;;;;;;;;5024084;28;45506;-87
2022/10/14 11:19:38;;;;;;;;;0.00;0.00;;;;;;;;5021747;28;45673;-86
2022/10/14 11:22:27;;;;;;;;;0.00;0.00;;;;;;;;5027495;28;45376;-86
2022/10/14 11:25:05;;;;;;;;;0.00;0.00;;;;;;;;5028315;28;45422;-86
2022/10/14 11:27:33;;;;;;;;;0.00;0.00;;;;;;;;5028450;28;45629;-87
2022/10/14 11:30:18;;;;;;;;;0.00;0.00;;;;;;;;5020231;28;46330;-86
2022/10/14 11:32:46;;;;;;;;;9.00;9.00;;;;;;;;5027547;28;45828;-89
2022/10/14 11:35:17;;;;;;;;;0.00;0.00;;;;;;;;5001940;28;45944;-86
2022/10/14 11:38:01;;;;;;;;;0.00;0.00;;;;;;;;5026415;28;45633;-86
2022/10/14 11:40:35;;;;;;;;;0.00;0.00;;;;;;;;5022189;28;46449;-86
2022/10/14 11:43:27;;;;;;;;;0.00;0.00;;;;;;;;5028280;28;45765;-87
2022/10/14 11:45:56;;;;;;;;;0.00;0.00;;;;;;;;4943644;28;45498;-87
2022/10/14 11:48:25;;;;;;;;;0.00;0.00;;;;;;;;4952093;28;45381;-86
2022/10/14 11:50:55;;;;;;;;;0.00;0.00;;;;;;;;4948424;28;46509;-86
2022/10/14 11:53:26;;;;;;;;;0.00;0.00;;;;;;;;4943152;28;45649;-87
2022/10/14 11:56:01;;;;;;;;;0.00;0.00;;;;;;;;4938640;28;45841;-86
2022/10/14 11:58:28;;;;;;;;;0.00;0.00;;;;;;;;4939916;28;45534;-86
2022/10/14 12:00:55;;;;;;;;;0.00;0.00;;;;;;;;4948792;28;45756;-86
2022/10/14 12:03:39;;;;;;;;;0.00;0.00;;;;;;;;4921602;28;45761;-87
2022/10/14 12:06:24;;;;;;;;;0.00;0.00;;;;;;;;4938774;28;45443;-87
2022/10/14 12:08:54;;;;;;;;;0.00;0.00;;;;;;;;4940431;28;45710;-86
2022/10/14 12:11:19;;;;;;;;;0.00;0.00;;;;;;;;4947194;28;46446;-85
2022/10/14 12:13:46;;;;;;;;;0.00;0.00;;;;;;;;4941710;28;45518;-87
2022/10/14 12:16:15;;;;;;;;;0.00;0.00;;;;;;;;4947665;28;45905;-87
2022/10/14 12:18:41;;;;;;;;;0.00;0.00;;;;;;;;4942461;28;45468;-85
2022/10/14 12:21:31;;;;;;;;;0.00;0.00;;;;;;;;4922962;28;48243;-86
2022/10/14 12:24:02;;;;;;;;;0.00;0.00;;;;;;;;5021141;28;45508;-86
2022/10/14 12:26:33;;;;;;;;;0.00;0.00;;;;;;;;5038356;28;44549;-86
2022/10/14 12:28:58;;;;;;;;;0.00;0.00;;;;;;;;5018513;28;28545;-86
2022/10/14 12:31:26;;;;;;;;;0.00;0.00;;;;;;;;5015861;28;30125;-85
2022/10/14 12:34:17;;;;;;;;;0.00;0.00;;;;;;;;5034659;28;45370;-85
2022/10/14 12:36:46;;;;;;;;;0.00;0.00;;;;;;;;5014812;28;45422;-86
2022/10/14 12:39:17;;;;;;;;;0.00;0.00;;;;;;;;5020594;28;45404;-87
2022/10/14 12:41:54;;;;;;;;;0.00;0.00;;;;;;;;4998619;28;46192;-87
2022/10/14 12:44:20;;;;;;;;;0.00;0.00;;;;;;;;5031941;28;45413;-86
2022/10/14 12:46:48;;;;;;;;;0.00;0.00;;;;;;;;5025324;28;45773;-87
2022/10/14 12:49:21;;;;;;;;;0.00;0.00;;;;;;;;5025394;28;45667;-86
2022/10/14 12:51:54;;;;;;;;;0.00;0.00;;;;;;;;5016856;28;46321;-86
2022/10/14 12:54:19;;;;;;;;;0.00;0.00;;;;;;;;5037241;28;45433;-86
2022/10/14 12:56:56;;;;;;;;;0.00;0.00;;;;;;;;5024445;28;45401;-85
2022/10/14 12:59:35;;;;;;;;;0.00;0.00;;;;;;;;5020885;28;45706;-86
2022/10/14 13:02:04;;;;;;;;;0.00;0.00;;;;;;;;5015169;28;46211;-85
2022/10/14 13:04:30;;;;;;;;;0.00;0.00;;;;;;;;5025183;28;45524;-85
2022/10/14 13:07:10;;;;;;;;;0.00;0.00;;;;;;;;5022979;28;45544;-85
2022/10/14 13:09:35;;;;;;;;;0.00;0.00;;;;;;;;5022688;28;45496;-86
2022/10/14 13:12:03;;;;;;;;;0.00;0.00;;;;;;;;5014345;28;46649;-85
2022/10/14 13:14:30;;;;;;;;;0.00;0.00;;;;;;;;5040169;28;45432;-86
2022/10/14 13:16:57;;;;;;;;;0.00;0.00;;;;;;;;5059068;28;8828;-85
2022/10/14 13:19:31;;;;;;;;;0.00;0.00;;;;;;;;5055842;28;11509;-85
2022/10/14 13:21:57;;;;;;;;;0.00;0.00;;;;;;;;5017565;28;28661;-85
2022/10/14 13:24:30;;;;;;;;;0.00;0.00;;;;;;;;5039996;28;28598;-85
2022/10/14 13:26:55;;;;;;;;;0.00;0.00;;;;;;;;5043159;28;28480;-85
2022/10/14 13:29:39;;;;;;;;;0.00;0.00;;;;;;;;5056000;28;8795;-85
2022/10/14 13:32:12;;;;;;;;;0.00;0.00;;;;;;;;5052662;28;11524;-85
2022/10/14 13:34:46;;;;;;;;;0.00;0.00;;;;;;;;5064400;28;11409;-85
2022/10/14 13:37:26;;;;;;;;;0.00;0.00;;;;;;;;5042021;28;12278;-85
2022/10/14 13:39:52;;;;;;;;;0.00;0.00;;;;;;;;5038758;28;11401;-84
2022/10/14 13:42:23;;;;;;;;;6.00;6.00;;;;;;;;5052524;28;11515;-85
2022/10/14 13:44:48;;;;;;;;;0.00;0.00;;;;;;;;5065113;28;8886;-84
2022/10/14 13:47:14;;;;;;;;;0.00;0.00;;;;;;;;5060569;28;11570;-85
2022/10/14 13:49:40;;;;;;;;;0.00;0.00;;;;;;;;5043052;28;8805;-84
2022/10/14 13:52:12;;;;;;;;;0.00;0.00;;;;;;;;5034062;28;11445;-84
2022/10/14 13:54:37;;;;;;;;;0.00;0.00;;;;;;;;5068116;28;12178;-84
2022/10/14 13:57:12;;;;;;;;;0.00;0.00;;;;;;;;5060532;28;11540;-85
2022/10/14 13:59:39;;;;;;;;;0.00;0.00;;;;;;;;5060979;28;8765;-85
2022/10/14 14:02:10;;;;;;;;;0.00;0.00;;;;;;;;5053116;28;11435;-85
2022/10/14 14:04:36;;;;;;;;;3.00;3.00;;;;;;;;5063849;28;11424;-85
2022/10/14 14:07:01;;;;;;;;;0.00;0.00;;;;;;;;5060280;28;11466;-85
2022/10/14 14:09:30;;;;;;;;;0.00;0.00;;;;;;;;5059807;28;8926;-85
2022/10/14 14:12:00;;;;;;;;;0.00;0.00;;;;;;;;5052913;28;8884;-84
2022/10/14 14:14:28;;;;;;;;;0.00;0.00;;;;;;;;5063019;28;11526;-85
2022/10/14 14:16:57;;;;;;;;;0.00;0.00;;;;;;;;5061717;28;11438;-85
2022/10/14 14:19:32;;;;;;;;;0.00;0.00;;;;;;;;5064850;28;11338;-84
2022/10/14 14:22:04;;;;;;;;;0.00;0.00;;;;;;;;5055957;28;11464;-85
2022/10/14 14:24:32;;;;;;;;;0.00;0.00;;;;;;;;5036951;28;12246;-89
2022/10/14 14:26:58;;;;;;;;;0.00;0.00;;;;;;;;5042596;28;11438;-87
2022/10/14 14:29:27;;;;;;;;;0.00;0.00;;;;;;;;5040816;28;8815;-87
2022/10/14 14:31:53;;;;;;;;;0.00;0.00;;;;;;;;5053830;28;8791;-87
2022/10/14 14:34:20;;;;;;;;;0.00;0.00;;;;;;;;5060800;28;11528;-84
2022/10/14 14:36:45;;;;;;;;;0.00;0.00;;;;;;;;5066240;28;9557;-85
2022/10/14 14:39:19;;;;;;;;;0.00;0.00;;;;;;;;5039030;28;11470;-85
2022/10/14 14:41:48;;;;;;;;;0.00;0.00;;;;;;;;5034820;28;8915;-85
2022/10/14 14:44:14;;;;;;;;;0.00;0.00;;;;;;;;5039280;28;11439;-86
2022/10/14 14:46:41;;;;;;;;;0.00;0.00;;;;;;;;5059784;28;11429;-86
2022/10/14 14:49:10;;;;;;;;;0.00;0.00;;;;;;;;5061911;28;11534;-85
2022/10/14 14:51:37;;;;;;;;;0.00;0.00;;;;;;;;5037910;28;11437;-85
2022/10/14 14:54:03;;;;;;;;;0.00;0.00;;;;;;;;5057293;28;11393;-85
2022/10/14 14:56:37;;;;;;;;;0.00;0.00;;;;;;;;5058954;28;12462;-84
2022/10/14 14:59:07;;;;;;;;;0.00;0.00;;;;;;;;5060366;28;11410;-85
2022/10/14 15:01:32;;;;;;;;;0.00;0.00;;;;;;;;5058547;28;11432;-85
2022/10/14 15:04:07;;;;;;;;;0.00;0.00;;;;;;;;5054811;28;11433;-85